Time,TemperatureF,DewpointF,PressureIn,WindDirection,WindDirectionDegrees,WindSpeedMPH,WindSpeedGustMPH,Humidity,HourlyPrecipIn,Conditions,Clouds,dailyrainin,SoftwareType,DateUTC
2013-09-28 00:01:00,59.9,59.9,30.31,ESE,118,0.0,0.0,100,0.00,,---,0.00,VWS V13.00,2013-09-28 04:01:00,
2013-09-28 00:02:00,60.0,60.0,30.30,ESE,118,0.0,0.0,100,0.00,,---,0.00,VWS V13.00,2013-09-28 04:02:00,
2013-09-28 00:07:00,60.1,60.1,30.30,ESE,118,0.0,0.0,100,0.00,,---,0.00,VWS V13.00,2013-09-28 04:07:00,
2013-09-28 00:12:00,60.0,60.0,30.31,ESE,118,0.0,0.0,100,0.00,,---,0.00,VWS V13.00,2013-09-28 04:12:00,
2013-09-28 00:17:00,59.9,59.9,30.31,ESE,118,0.0,0.0,100,0.00,,---,0.00,VWS V13.00,2013-09-28 04:17:00,
2013-09-28 00:23:00,59.6,59.6,30.31,ESE,118,0.0,0.0,100,0.00,,---,0.00,VWS V13.00,2013-09-28 04:23:00,
2013-09-28 00:28:00,59.5,59.5,30.31,ESE,118,0.0,0.0,100,0.00,,---,0.00,VWS V13.00,2013-09-28 04:28:00,
2013-09-28 00:33:00,59.3,59.3,30.31,ESE,118,0.0,0.0,100,0.00,,---,0.00,VWS V13.00,2013-09-28 04:33:00,
2013-09-28 00:39:00,59.2,59.2,30.31,ESE,118,0.0,0.0,100,0.00,,---,0.00,VWS V13.00,2013-09-28 04:39:00,
2013-09-28 00:44:00,59.1,59.1,30.31,ESE,118,0.0,0.0,100,0.00,,---,0.00,VWS V13.00,2013-09-28 04:44:00,
2013-09-28 00:49:00,59.2,59.2,30.31,ESE,118,0.0,0.0,100,0.00,,---,0.00,VWS V13.00,2013-09-28 04:49:00,
2013-09-28 00:54:00,59.0,59.0,30.31,ESE,118,0.0,0.0,100,0.00,,---,0.00,VWS V13.00,2013-09-28 04:54:00,
2013-09-28 00:59:00,58.8,58.8,30.31,ESE,118,0.0,0.0,100,0.00,,---,0.00,VWS V13.00,2013-09-28 04:59:00,
2013-09-28 01:04:00,58.8,58.8,30.31,ESE,119,0.0,0.0,100,0.00,,---,0.00,VWS V13.00,2013-09-28 05:04:00,
2013-09-28 01:09:00,58.7,58.7,30.31,ESE,120,0.0,0.0,100,0.00,,---,0.00,VWS V13.00,2013-09-28 05:09:00,
2013-09-28 01:14:00,58.5,58.5,30.30,ESE,120,0.0,0.0,100,0.00,,---,0.00,VWS V13.00,2013-09-28 05:14:00,
2013-09-28 01:19:00,58.4,58.4,30.31,SE,126,0.0,0.0,100,0.00,,---,0.00,VWS V13.00,2013-09-28 05:19:00,
2013-09-28 01:24:00,58.2,58.2,30.31,SE,127,0.0,0.0,100,0.00,,---,0.00,VWS V13.00,2013-09-28 05:24:00,
2013-09-28 01:29:00,58.0,58.0,30.31,SE,127,0.0,0.0,100,0.00,,---,0.00,VWS V13.00,2013-09-28 05:29:00,
2013-09-28 01:34:00,57.7,57.7,30.31,SE,126,0.0,0.0,100,0.00,,---,0.00,VWS V13.00,2013-09-28 05:34:00,
2013-09-28 01:39:00,57.4,57.4,30.31,SE,124,0.0,0.0,100,0.00,,---,0.00,VWS V13.00,2013-09-28 05:39:00,
2013-09-28 01:44:00,57.3,57.3,30.31,SE,125,0.0,0.0,100,0.00,,---,0.00,VWS V13.00,2013-09-28 05:44:00,
2013-09-28 01:49:00,57.1,57.1,30.31,SE,126,0.0,0.0,100,0.00,,---,0.00,VWS V13.00,2013-09-28 05:49:00,
2013-09-28 01:54:00,56.8,56.8,30.31,SE,131,0.0,0.0,100,0.00,,---,0.00,VWS V13.00,2013-09-28 05:54:00,
2013-09-28 01:59:00,56.8,56.8,30.31,SE,131,0.0,0.0,100,0.00,,---,0.00,VWS V13.00,2013-09-28 05:59:00,
2013-09-28 02:04:00,56.7,56.7,30.31,SE,131,0.0,0.0,100,0.00,,---,0.00,VWS V13.00,2013-09-28 06:04:00,
2013-09-28 02:09:00,56.8,56.8,30.31,SE,131,0.0,0.0,100,0.00,,---,0.00,VWS V13.00,2013-09-28 06:09:00,
2013-09-28 02:14:00,57.1,57.1,30.31,SE,135,0.0,0.0,100,0.00,,---,0.00,VWS V13.00,2013-09-28 06:14:00,
2013-09-28 02:19:00,57.3,57.3,30.31,ESE,123,0.0,0.0,100,0.00,,---,0.00,VWS V13.00,2013-09-28 06:19:00,
2013-09-28 02:24:00,57.6,57.6,30.31,SE,124,0.0,0.0,100,0.00,,---,0.00,VWS V13.00,2013-09-28 06:24:00,
2013-09-28 02:29:00,57.7,57.7,30.31,SE,129,0.0,0.0,100,0.00,,---,0.00,VWS V13.00,2013-09-28 06:29:00,
2013-09-28 02:35:00,57.7,57.7,30.31,SE,129,0.0,0.0,100,0.00,,---,0.00,VWS V13.00,2013-09-28 06:35:00,
2013-09-28 02:40:00,57.7,57.7,30.31,SE,129,0.0,0.0,100,0.00,,---,0.00,VWS V13.00,2013-09-28 06:40:00,
2013-09-28 02:45:00,57.6,57.6,30.31,SE,129,0.0,0.0,100,0.00,,---,0.00,VWS V13.00,2013-09-28 06:45:00,
2013-09-28 02:50:00,57.6,57.6,30.31,SE,129,0.0,0.0,100,0.00,,---,0.00,VWS V13.00,2013-09-28 06:50:00,
2013-09-28 02:55:00,57.6,57.6,30.31,SE,129,0.0,0.0,100,0.00,,---,0.00,VWS V13.00,2013-09-28 06:55:00,
2013-09-28 03:00:00,57.7,57.7,30.31,SE,128,0.0,0.0,100,0.00,,---,0.00,VWS V13.00,2013-09-28 07:00:00,
2013-09-28 03:05:00,57.7,57.7,30.30,SE,130,0.0,0.0,100,0.00,,---,0.00,VWS V13.00,2013-09-28 07:05:00,
2013-09-28 03:10:00,57.6,57.6,30.31,SE,130,0.0,0.0,100,0.00,,---,0.00,VWS V13.00,2013-09-28 07:10:00,
2013-09-28 03:15:00,57.6,57.6,30.31,SE,130,0.0,0.0,100,0.00,,---,0.00,VWS V13.00,2013-09-28 07:15:00,
2013-09-28 03:20:00,57.7,57.7,30.31,SE,130,0.0,0.0,100,0.00,,---,0.00,VWS V13.00,2013-09-28 07:20:00,
2013-09-28 03:25:00,57.9,57.9,30.31,SE,130,0.0,0.0,100,0.00,,---,0.00,VWS V13.00,2013-09-28 07:25:00,
2013-09-28 03:30:00,58.0,58.0,30.31,SE,130,0.0,0.0,100,0.00,,---,0.00,VWS V13.00,2013-09-28 07:30:00,
2013-09-28 03:35:00,58.0,58.0,30.31,SE,130,0.0,0.0,100,0.00,,---,0.00,VWS V13.00,2013-09-28 07:35:00,
2013-09-28 03:40:00,58.0,58.0,30.31,SE,130,0.0,0.0,100,0.00,,---,0.00,VWS V13.00,2013-09-28 07:40:00,
2013-09-28 03:45:00,58.0,58.0,30.31,SE,130,0.0,0.0,100,0.00,,---,0.00,VWS V13.00,2013-09-28 07:45:00,
2013-09-28 03:50:00,58.1,58.1,30.31,SE,130,0.0,0.0,100,0.00,,---,0.00,VWS V13.00,2013-09-28 07:50:00,
2013-09-28 03:55:00,58.1,58.1,30.31,SE,130,0.0,0.0,100,0.00,,---,0.00,VWS V13.00,2013-09-28 07:55:00,
2013-09-28 04:00:00,58.1,58.1,30.31,SE,130,0.0,0.0,100,0.00,,---,0.00,VWS V13.00,2013-09-28 08:00:00,
2013-09-28 04:05:00,58.0,58.0,30.31,SE,130,0.0,0.0,100,0.00,,---,0.00,VWS V13.00,2013-09-28 08:05:00,
2013-09-28 04:10:00,58.0,58.0,30.31,SE,130,0.0,0.0,100,0.00,,---,0.00,VWS V13.00,2013-09-28 08:10:00,
2013-09-28 04:15:00,58.1,58.1,30.30,SE,130,0.0,0.0,100,0.00,,---,0.00,VWS V13.00,2013-09-28 08:15:00,
2013-09-28 04:20:00,58.1,58.1,30.31,SE,130,0.0,0.0,100,0.00,,---,0.00,VWS V13.00,2013-09-28 08:20:00,
2013-09-28 04:25:00,58.0,58.0,30.31,SE,130,0.0,0.0,100,0.00,,---,0.00,VWS V13.00,2013-09-28 08:25:00,
2013-09-28 04:30:00,57.9,57.9,30.31,SE,130,0.0,0.0,100,0.00,,---,0.00,VWS V13.00,2013-09-28 08:30:00,
2013-09-28 04:35:00,57.8,57.8,30.31,SE,130,0.0,0.0,100,0.00,,---,0.00,VWS V13.00,2013-09-28 08:35:00,
2013-09-28 04:40:00,57.6,57.6,30.31,SE,130,0.0,0.0,100,0.00,,---,0.00,VWS V13.00,2013-09-28 08:40:00,
2013-09-28 04:45:00,57.4,57.4,30.31,SE,130,0.0,0.0,100,0.00,,---,0.00,VWS V13.00,2013-09-28 08:45:00,
2013-09-28 04:50:00,56.9,56.9,30.32,North,0,0.0,0.0,100,0.00,,---,0.00,VWS V13.00,2013-09-28 08:50:00,
2013-09-28 04:55:00,56.5,56.5,30.32,North,0,0.0,0.0,100,0.00,,---,0.00,VWS V13.00,2013-09-28 08:55:00,
2013-09-28 05:00:00,56.2,56.2,30.31,North,1,0.0,0.0,100,0.00,,---,0.00,VWS V13.00,2013-09-28 09:00:00,
2013-09-28 05:05:00,56.1,56.1,30.31,North,1,0.0,0.0,100,0.00,,---,0.00,VWS V13.00,2013-09-28 09:05:00,
2013-09-28 05:10:00,56.2,56.2,30.31,North,1,0.0,0.0,100,0.00,,---,0.00,VWS V13.00,2013-09-28 09:10:00,
2013-09-28 05:15:00,56.3,56.3,30.32,North,1,0.0,0.0,100,0.00,,---,0.00,VWS V13.00,2013-09-28 09:15:00,
2013-09-28 05:20:00,56.2,56.2,30.32,North,0,0.0,0.0,100,0.00,,---,0.00,VWS V13.00,2013-09-28 09:20:00,
2013-09-28 05:25:00,56.1,56.1,30.32,North,0,0.0,0.0,100,0.00,,---,0.00,VWS V13.00,2013-09-28 09:25:00,
2013-09-28 05:30:00,56.3,56.3,30.32,North,0,0.0,0.0,100,0.00,,---,0.00,VWS V13.00,2013-09-28 09:30:00,
2013-09-28 05:35:00,56.3,56.3,30.32,NNE,21,0.0,0.0,100,0.00,,---,0.00,VWS V13.00,2013-09-28 09:35:00,
2013-09-28 05:40:00,56.4,56.4,30.32,NNE,26,0.0,0.0,100,0.00,,---,0.00,VWS V13.00,2013-09-28 09:40:00,
2013-09-28 05:45:00,56.5,56.5,30.32,NNE,24,0.0,0.0,100,0.00,,---,0.00,VWS V13.00,2013-09-28 09:45:00,
2013-09-28 05:50:00,56.5,56.5,30.33,North,359,0.0,1.0,100,0.00,,---,0.00,VWS V13.00,2013-09-28 09:50:00,
2013-09-28 05:55:00,56.4,56.4,30.33,NNE,19,0.0,1.0,100,0.00,,---,0.00,VWS V13.00,2013-09-28 09:55:00,
2013-09-28 06:00:00,56.4,56.4,30.32,NNE,19,0.0,0.0,100,0.00,,---,0.00,VWS V13.00,2013-09-28 10:00:00,
2013-09-28 06:05:00,56.6,56.6,30.32,North,5,0.0,0.0,100,0.00,,---,0.00,VWS V13.00,2013-09-28 10:05:00,
2013-09-28 06:10:00,56.7,56.7,30.33,North,5,0.0,0.0,100,0.00,,---,0.00,VWS V13.00,2013-09-28 10:10:00,
2013-09-28 06:15:00,56.8,56.8,30.33,NNE,26,0.0,0.0,100,0.00,,---,0.00,VWS V13.00,2013-09-28 10:15:00,
2013-09-28 06:20:00,56.8,56.8,30.33,North,0,0.0,0.0,100,0.00,,---,0.00,VWS V13.00,2013-09-28 10:20:00,
2013-09-28 06:25:00,56.9,56.9,30.33,North,0,0.0,0.0,100,0.00,,---,0.00,VWS V13.00,2013-09-28 10:25:00,
2013-09-28 06:31:00,56.6,56.6,30.33,North,0,0.0,0.0,100,0.00,,---,0.00,VWS V13.00,2013-09-28 10:31:00,
2013-09-28 06:36:00,56.3,56.3,30.33,North,0,0.0,0.0,100,0.00,,---,0.00,VWS V13.00,2013-09-28 10:36:00,
2013-09-28 06:41:00,56.2,56.2,30.33,North,0,0.0,0.0,100,0.00,,---,0.00,VWS V13.00,2013-09-28 10:41:00,
2013-09-28 06:46:00,56.1,56.1,30.34,North,0,0.0,0.0,100,0.00,,---,0.00,VWS V13.00,2013-09-28 10:46:00,
2013-09-28 06:51:00,55.8,55.8,30.33,North,0,0.0,0.0,100,0.00,,---,0.00,VWS V13.00,2013-09-28 10:51:00,
2013-09-28 06:56:00,55.7,55.7,30.34,North,0,0.0,0.0,100,0.00,,---,0.00,VWS V13.00,2013-09-28 10:56:00,
2013-09-28 07:01:00,55.6,55.6,30.34,North,0,0.0,0.0,100,0.00,,---,0.00,VWS V13.00,2013-09-28 11:01:00,
2013-09-28 07:06:00,55.5,55.5,30.34,North,0,0.0,0.0,100,0.00,,---,0.00,VWS V13.00,2013-09-28 11:06:00,
2013-09-28 07:11:00,55.4,55.4,30.35,North,0,0.0,0.0,100,0.00,,---,0.00,VWS V13.00,2013-09-28 11:11:00,
2013-09-28 07:16:00,55.4,55.4,30.35,North,0,0.0,0.0,100,0.00,,---,0.00,VWS V13.00,2013-09-28 11:16:00,
2013-09-28 07:21:00,55.5,55.5,30.35,North,0,0.0,0.0,100,0.00,,---,0.00,VWS V13.00,2013-09-28 11:21:00,
2013-09-28 07:26:00,55.5,55.5,30.35,North,0,0.0,0.0,100,0.00,,---,0.00,VWS V13.00,2013-09-28 11:26:00,
2013-09-28 07:31:00,55.4,55.4,30.35,North,0,0.0,0.0,100,0.00,,---,0.00,VWS V13.00,2013-09-28 11:31:00,
2013-09-28 07:36:00,55.5,55.5,30.35,North,0,0.0,0.0,100,0.00,,---,0.00,VWS V13.00,2013-09-28 11:36:00,
2013-09-28 07:41:00,55.6,55.6,30.35,NNE,13,0.0,0.0,100,0.00,,---,0.00,VWS V13.00,2013-09-28 11:41:00,
2013-09-28 07:46:00,55.6,55.6,30.35,North,3,0.0,1.0,100,0.00,,---,0.00,VWS V13.00,2013-09-28 11:46:00,
2013-09-28 07:51:00,55.9,55.9,30.35,North,1,0.0,1.0,100,0.00,,---,0.00,VWS V13.00,2013-09-28 11:51:00,
2013-09-28 07:56:00,56.0,56.0,30.36,North,7,0.0,1.0,100,0.00,,---,0.00,VWS V13.00,2013-09-28 11:56:00,
2013-09-28 08:01:00,56.2,56.2,30.36,NE,36,0.0,0.0,100,0.00,,---,0.00,VWS V13.00,2013-09-28 12:01:00,
2013-09-28 08:06:00,56.3,56.3,30.36,NNE,19,0.0,0.0,100,0.00,,---,0.00,VWS V13.00,2013-09-28 12:06:00,
2013-09-28 08:11:00,56.3,56.3,30.36,NNE,19,0.0,0.0,100,0.00,,---,0.00,VWS V13.00,2013-09-28 12:11:00,
2013-09-28 08:16:00,56.2,56.2,30.36,North,358,0.0,0.0,100,0.00,,---,0.00,VWS V13.00,2013-09-28 12:16:00,
2013-09-28 08:21:00,56.2,56.2,30.36,NNW,342,0.0,0.0,100,0.00,,---,0.00,VWS V13.00,2013-09-28 12:21:00,
2013-09-28 08:26:00,56.2,56.2,30.36,North,353,0.0,0.0,100,0.00,,---,0.00,VWS V13.00,2013-09-28 12:26:00,
2013-09-28 08:31:00,56.2,56.2,30.36,North,353,0.0,0.0,100,0.00,,---,0.00,VWS V13.00,2013-09-28 12:31:00,
2013-09-28 08:37:00,56.3,56.3,30.36,North,353,0.0,0.0,100,0.00,,---,0.00,VWS V13.00,2013-09-28 12:37:00,
2013-09-28 08:41:00,56.5,56.5,30.36,North,353,0.0,0.0,100,0.00,,---,0.00,VWS V13.00,2013-09-28 12:41:00,
2013-09-28 08:47:00,56.6,56.6,30.36,North,0,0.0,0.0,100,0.00,,---,0.00,VWS V13.00,2013-09-28 12:47:00,
2013-09-28 08:52:00,56.7,56.7,30.36,NNW,341,0.0,0.0,100,0.00,,---,0.00,VWS V13.00,2013-09-28 12:52:00,
2013-09-28 08:57:00,56.9,56.9,30.36,NNW,334,0.0,0.0,100,0.00,,---,0.00,VWS V13.00,2013-09-28 12:57:00,
2013-09-28 09:02:00,56.9,56.9,30.36,North,0,0.0,0.0,100,0.00,,---,0.00,VWS V13.00,2013-09-28 13:02:00,
2013-09-28 09:07:00,57.0,57.0,30.36,NNW,336,0.0,0.0,100,0.00,,---,0.00,VWS V13.00,2013-09-28 13:07:00,
2013-09-28 09:12:00,57.1,57.1,30.36,North,0,0.0,0.0,100,0.00,,---,0.00,VWS V13.00,2013-09-28 13:12:00,
2013-09-28 09:17:00,57.2,57.2,30.37,North,4,0.0,0.0,100,0.00,,---,0.00,VWS V13.00,2013-09-28 13:17:00,
2013-09-28 09:22:00,57.4,57.4,30.37,North,0,0.0,0.0,100,0.00,,---,0.00,VWS V13.00,2013-09-28 13:22:00,
2013-09-28 09:27:00,57.6,57.6,30.37,North,8,0.0,0.0,100,0.00,,---,0.00,VWS V13.00,2013-09-28 13:27:00,
2013-09-28 09:32:00,57.8,57.8,30.37,North,8,0.0,0.0,100,0.00,,---,0.00,VWS V13.00,2013-09-28 13:32:00,
2013-09-28 09:37:00,58.1,58.1,30.37,North,0,0.0,0.0,100,0.00,,---,0.00,VWS V13.00,2013-09-28 13:37:00,
2013-09-28 09:42:00,58.5,58.5,30.37,North,0,0.0,0.0,100,0.00,,---,0.00,VWS V13.00,2013-09-28 13:42:00,
2013-09-28 09:47:00,58.6,58.6,30.37,North,357,0.0,0.0,100,0.00,,---,0.00,VWS V13.00,2013-09-28 13:47:00,
2013-09-28 09:52:00,58.9,58.9,30.37,North,0,0.0,0.0,100,0.00,,---,0.00,VWS V13.00,2013-09-28 13:52:00,
2013-09-28 09:57:00,59.1,59.1,30.37,NNW,346,0.0,0.0,100,0.00,,---,0.00,VWS V13.00,2013-09-28 13:57:00,
2013-09-28 10:02:00,59.6,59.6,30.37,North,0,0.0,0.0,100,0.00,,---,0.00,VWS V13.00,2013-09-28 14:02:00,
2013-09-28 10:07:00,59.7,59.7,30.37,North,354,0.0,0.0,100,0.00,,---,0.00,VWS V13.00,2013-09-28 14:07:00,
2013-09-28 10:12:00,60.0,60.0,30.37,North,349,0.0,0.0,100,0.00,,---,0.00,VWS V13.00,2013-09-28 14:12:00,
2013-09-28 10:17:00,60.3,60.3,30.37,North,350,0.0,0.0,100,0.00,,---,0.00,VWS V13.00,2013-09-28 14:17:00,
2013-09-28 10:22:00,60.6,60.6,30.37,North,357,0.0,0.0,100,0.00,,---,0.00,VWS V13.00,2013-09-28 14:22:00,
2013-09-28 10:27:00,61.2,61.2,30.38,NNW,340,0.0,0.0,100,0.00,,---,0.00,VWS V13.00,2013-09-28 14:27:00,
2013-09-28 10:32:00,61.5,61.5,30.37,North,359,0.0,0.0,100,0.00,,---,0.00,VWS V13.00,2013-09-28 14:32:00,
2013-09-28 10:37:00,62.0,61.7,30.37,ENE,72,0.0,0.0,99,0.00,,---,0.00,VWS V13.00,2013-09-28 14:37:00,
2013-09-28 10:42:00,63.0,61.5,30.38,East,92,0.0,0.0,95,0.00,,---,0.00,VWS V13.00,2013-09-28 14:42:00,
2013-09-28 10:47:00,64.5,60.5,30.38,ESE,122,0.0,0.0,87,0.00,,---,0.00,VWS V13.00,2013-09-28 14:47:00,
2013-09-28 10:53:00,64.9,60.3,30.38,ESE,112,0.0,0.0,85,0.00,,---,0.00,VWS V13.00,2013-09-28 14:53:00,
2013-09-28 10:58:00,64.7,58.7,30.38,ESE,117,1.0,1.0,81,0.00,,---,0.00,VWS V13.00,2013-09-28 14:58:00,
2013-09-28 11:03:00,64.8,58.8,30.38,ESE,117,0.0,7.0,81,0.00,,---,0.00,VWS V13.00,2013-09-28 15:03:00,
2013-09-28 11:08:00,64.8,59.5,30.38,SE,125,0.0,7.0,83,0.00,,---,0.00,VWS V13.00,2013-09-28 15:08:00,
2013-09-28 11:13:00,64.7,59.4,30.38,ESE,115,1.0,7.0,83,0.00,,---,0.00,VWS V13.00,2013-09-28 15:13:00,
2013-09-28 11:18:00,64.5,59.6,30.38,ESE,122,0.0,7.0,84,0.00,,---,0.00,VWS V13.00,2013-09-28 15:18:00,
2013-09-28 11:23:00,64.6,59.3,30.38,SE,124,0.0,7.0,83,0.00,,---,0.00,VWS V13.00,2013-09-28 15:23:00,
2013-09-28 11:28:00,64.4,59.5,30.37,SE,127,0.0,7.0,84,0.00,,---,0.00,VWS V13.00,2013-09-28 15:28:00,
2013-09-28 11:33:00,64.9,60.0,30.38,ENE,65,0.0,0.0,84,0.00,,---,0.00,VWS V13.00,2013-09-28 15:33:00,
2013-09-28 11:38:00,64.9,59.6,30.38,ESE,123,0.0,0.0,83,0.00,,---,0.00,VWS V13.00,2013-09-28 15:38:00,
2013-09-28 11:43:00,64.8,59.9,30.37,ESE,112,0.0,0.0,84,0.00,,---,0.00,VWS V13.00,2013-09-28 15:43:00,
2013-09-28 11:48:00,64.8,59.9,30.38,ESE,122,0.0,0.0,84,0.00,,---,0.00,VWS V13.00,2013-09-28 15:48:00,
2013-09-28 11:53:00,64.9,60.0,30.38,ENE,68,0.0,0.0,84,0.00,,---,0.00,VWS V13.00,2013-09-28 15:53:00,
2013-09-28 11:58:00,65.1,60.2,30.37,East,96,0.0,0.0,84,0.00,,---,0.00,VWS V13.00,2013-09-28 15:58:00,
2013-09-28 12:03:00,65.2,60.2,30.37,ESE,105,0.0,0.0,84,0.00,,---,0.00,VWS V13.00,2013-09-28 16:03:00,
2013-09-28 12:08:00,65.3,60.3,30.37,ESE,103,0.0,0.0,84,0.00,,---,0.00,VWS V13.00,2013-09-28 16:08:00,
2013-09-28 12:13:00,65.4,60.1,30.37,NE,43,0.0,0.0,83,0.00,,---,0.00,VWS V13.00,2013-09-28 16:13:00,
2013-09-28 12:18:00,65.2,60.2,30.37,ENE,75,0.0,0.0,84,0.00,,---,0.00,VWS V13.00,2013-09-28 16:18:00,
2013-09-28 12:23:00,65.0,59.7,30.37,ENE,69,0.0,0.0,83,0.00,,---,0.00,VWS V13.00,2013-09-28 16:23:00,
2013-09-28 12:28:00,64.8,59.9,30.37,ENE,66,0.0,0.0,84,0.00,,---,0.00,VWS V13.00,2013-09-28 16:28:00,
2013-09-28 12:33:00,64.8,60.2,30.37,East,89,0.0,0.0,85,0.00,,---,0.00,VWS V13.00,2013-09-28 16:33:00,
2013-09-28 12:38:00,64.9,60.3,30.37,ESE,110,0.0,0.0,85,0.00,,---,0.00,VWS V13.00,2013-09-28 16:38:00,
2013-09-28 12:44:00,65.0,60.0,30.37,SE,127,0.0,0.0,84,0.00,,---,0.00,VWS V13.00,2013-09-28 16:44:00,
2013-09-28 12:49:00,65.1,60.5,30.36,SE,127,0.0,0.0,85,0.00,,---,0.00,VWS V13.00,2013-09-28 16:49:00,
2013-09-28 12:54:00,65.3,59.7,30.36,East,92,0.0,0.0,82,0.00,,---,0.00,VWS V13.00,2013-09-28 16:54:00,
2013-09-28 12:59:00,65.3,59.3,30.36,East,95,0.0,0.0,81,0.00,,---,0.00,VWS V13.00,2013-09-28 16:59:00,
2013-09-28 13:04:00,65.3,59.3,30.36,ESE,113,0.0,0.0,81,0.00,,---,0.00,VWS V13.00,2013-09-28 17:04:00,
2013-09-28 13:09:00,65.4,59.8,30.36,NNE,21,0.0,0.0,82,0.00,,---,0.00,VWS V13.00,2013-09-28 17:09:00,
2013-09-28 13:14:00,65.4,59.8,30.36,ENE,60,0.0,1.0,82,0.00,,---,0.00,VWS V13.00,2013-09-28 17:14:00,
2013-09-28 13:19:00,65.5,59.5,30.36,ENE,60,0.0,1.0,81,0.00,,---,0.00,VWS V13.00,2013-09-28 17:19:00,
2013-09-28 13:24:00,65.7,59.7,30.36,NNE,20,0.0,1.0,81,0.00,,---,0.00,VWS V13.00,2013-09-28 17:24:00,
2013-09-28 13:29:00,65.5,59.5,30.36,ENE,73,0.0,0.0,81,0.00,,---,0.00,VWS V13.00,2013-09-28 17:29:00,
2013-09-28 13:34:00,65.5,59.5,30.35,ENE,73,0.0,0.0,81,0.00,,---,0.00,VWS V13.00,2013-09-28 17:34:00,
2013-09-28 13:39:00,65.5,59.5,30.35,ENE,73,0.0,0.0,81,0.00,,---,0.00,VWS V13.00,2013-09-28 17:39:00,
2013-09-28 13:44:00,65.4,59.4,30.35,East,93,0.0,0.0,81,0.00,,---,0.00,VWS V13.00,2013-09-28 17:44:00,
2013-09-28 13:49:00,65.5,59.2,30.35,SE,139,0.0,0.0,80,0.00,,---,0.00,VWS V13.00,2013-09-28 17:49:00,
2013-09-28 13:54:00,65.8,59.5,30.34,ESE,120,0.0,0.0,80,0.00,,---,0.00,VWS V13.00,2013-09-28 17:54:00,
2013-09-28 13:59:00,65.9,59.2,30.34,ESE,120,0.0,0.0,79,0.00,,---,0.00,VWS V13.00,2013-09-28 17:59:00,
2013-09-28 14:04:00,66.0,59.7,30.34,ESE,120,0.0,0.0,80,0.00,,---,0.00,VWS V13.00,2013-09-28 18:04:00,
2013-09-28 14:09:00,65.9,59.6,30.34,ESE,120,0.0,0.0,80,0.00,,---,0.00,VWS V13.00,2013-09-28 18:09:00,
2013-09-28 14:14:00,65.9,59.6,30.34,ESE,118,0.0,0.0,80,0.00,,---,0.00,VWS V13.00,2013-09-28 18:14:00,
2013-09-28 14:19:00,66.1,60.1,30.34,ESE,118,0.0,0.0,81,0.00,,---,0.00,VWS V13.00,2013-09-28 18:19:00,
2013-09-28 14:24:00,66.3,60.7,30.34,NNE,13,0.0,0.0,82,0.00,,---,0.00,VWS V13.00,2013-09-28 18:24:00,
2013-09-28 14:29:00,66.3,60.7,30.34,NNE,15,0.0,0.0,82,0.00,,---,0.00,VWS V13.00,2013-09-28 18:29:00,
2013-09-28 14:34:00,66.2,60.5,30.34,East,87,0.0,0.0,82,0.00,,---,0.00,VWS V13.00,2013-09-28 18:34:00,
2013-09-28 14:39:00,65.8,60.5,30.33,East,85,0.0,0.0,83,0.00,,---,0.00,VWS V13.00,2013-09-28 18:39:00,
2013-09-28 14:44:00,66.2,60.5,30.33,NNE,17,0.0,0.0,82,0.00,,---,0.00,VWS V13.00,2013-09-28 18:44:00,
2013-09-28 14:49:00,66.2,60.5,30.33,NNE,19,0.0,0.0,82,0.00,,---,0.00,VWS V13.00,2013-09-28 18:49:00,
2013-09-28 14:54:00,66.0,60.7,30.33,ENE,69,0.0,0.0,83,0.00,,---,0.00,VWS V13.00,2013-09-28 18:54:00,
2013-09-28 15:00:00,65.6,60.3,30.33,ESE,110,0.0,0.0,83,0.00,,---,0.00,VWS V13.00,2013-09-28 19:00:00,
2013-09-28 15:05:00,65.2,59.6,30.33,ESE,113,0.0,0.0,82,0.00,,---,0.00,VWS V13.00,2013-09-28 19:05:00,
2013-09-28 15:10:00,65.0,60.0,30.33,ESE,113,0.0,0.0,84,0.00,,---,0.00,VWS V13.00,2013-09-28 19:10:00,
2013-09-28 15:15:00,64.9,60.3,30.33,ESE,119,0.0,0.0,85,0.00,,---,0.00,VWS V13.00,2013-09-28 19:15:00,
2013-09-28 15:20:00,64.7,60.1,30.33,ESE,121,0.0,0.0,85,0.00,,---,0.00,VWS V13.00,2013-09-28 19:20:00,
2013-09-28 15:25:00,64.6,60.3,30.33,ESE,108,0.0,0.0,86,0.00,,---,0.00,VWS V13.00,2013-09-28 19:25:00,
2013-09-28 15:30:00,64.6,60.3,30.33,ESE,108,0.0,0.0,86,0.00,,---,0.00,VWS V13.00,2013-09-28 19:30:00,
2013-09-28 15:35:00,64.7,60.4,30.33,ESE,107,0.0,0.0,86,0.00,,---,0.00,VWS V13.00,2013-09-28 19:35:00,
2013-09-28 15:40:00,64.8,60.2,30.33,ESE,108,0.0,0.0,85,0.00,,---,0.00,VWS V13.00,2013-09-28 19:40:00,
2013-09-28 15:45:00,64.9,60.3,30.33,ESE,108,0.0,0.0,85,0.00,,---,0.00,VWS V13.00,2013-09-28 19:45:00,
2013-09-28 15:50:00,65.0,60.7,30.33,ESE,108,0.0,0.0,86,0.00,,---,0.00,VWS V13.00,2013-09-28 19:50:00,
2013-09-28 15:55:00,65.1,60.8,30.33,ESE,108,0.0,0.0,86,0.00,,---,0.00,VWS V13.00,2013-09-28 19:55:00,
2013-09-28 16:00:00,65.1,60.8,30.32,ESE,108,0.0,0.0,86,0.00,,---,0.00,VWS V13.00,2013-09-28 20:00:00,
2013-09-28 16:05:00,65.0,60.4,30.32,ESE,108,0.0,0.0,85,0.00,,---,0.00,VWS V13.00,2013-09-28 20:05:00,
2013-09-28 16:10:00,65.1,60.5,30.32,ESE,108,0.0,0.0,85,0.00,,---,0.00,VWS V13.00,2013-09-28 20:10:00,
2013-09-28 16:15:00,65.1,60.5,30.32,ESE,108,0.0,0.0,85,0.00,,---,0.00,VWS V13.00,2013-09-28 20:15:00,
2013-09-28 16:20:00,65.3,60.7,30.32,ESE,108,0.0,0.0,85,0.00,,---,0.00,VWS V13.00,2013-09-28 20:20:00,
2013-09-28 16:25:00,65.5,60.5,30.32,ESE,108,0.0,0.0,84,0.00,,---,0.00,VWS V13.00,2013-09-28 20:25:00,
2013-09-28 16:30:00,65.6,60.6,30.32,ESE,108,0.0,0.0,84,0.00,,---,0.00,VWS V13.00,2013-09-28 20:30:00,
2013-09-28 16:35:00,65.4,60.5,30.32,ESE,108,0.0,0.0,84,0.00,,---,0.00,VWS V13.00,2013-09-28 20:35:00,
2013-09-28 16:40:00,65.5,60.5,30.32,ESE,108,0.0,0.0,84,0.00,,---,0.00,VWS V13.00,2013-09-28 20:40:00,
2013-09-28 16:45:00,65.7,60.7,30.32,ESE,108,0.0,0.0,84,0.00,,---,0.00,VWS V13.00,2013-09-28 20:45:00,
2013-09-28 16:50:00,65.7,60.7,30.32,ESE,108,0.0,0.0,84,0.00,,---,0.00,VWS V13.00,2013-09-28 20:50:00,
2013-09-28 16:55:00,65.6,60.6,30.31,NE,41,0.0,0.0,84,0.00,,---,0.00,VWS V13.00,2013-09-28 20:55:00,
2013-09-28 17:00:00,65.4,60.5,30.31,NE,41,0.0,0.0,84,0.00,,---,0.00,VWS V13.00,2013-09-28 21:00:00,
2013-09-28 17:06:00,65.4,60.1,30.32,NE,41,0.0,0.0,83,0.00,,---,0.00,VWS V13.00,2013-09-28 21:06:00,
2013-09-28 17:11:00,65.3,60.3,30.32,NE,41,0.0,0.0,84,0.00,,---,0.00,VWS V13.00,2013-09-28 21:11:00,
2013-09-28 17:16:00,65.4,60.5,30.31,NE,41,0.0,0.0,84,0.00,,---,0.00,VWS V13.00,2013-09-28 21:16:00,
2013-09-28 17:21:00,65.4,60.5,30.32,NE,41,0.0,0.0,84,0.00,,---,0.00,VWS V13.00,2013-09-28 21:21:00,
2013-09-28 17:26:00,65.3,60.3,30.32,NE,41,0.0,0.0,84,0.00,,---,0.00,VWS V13.00,2013-09-28 21:26:00,
2013-09-28 17:31:00,65.2,60.6,30.32,NE,41,0.0,0.0,85,0.00,,---,0.00,VWS V13.00,2013-09-28 21:31:00,
2013-09-28 17:36:00,65.3,60.7,30.32,NE,41,0.0,0.0,85,0.00,,---,0.00,VWS V13.00,2013-09-28 21:36:00,
2013-09-28 17:41:00,65.3,60.7,30.32,NE,41,0.0,0.0,85,0.00,,---,0.00,VWS V13.00,2013-09-28 21:41:00,
2013-09-28 17:46:00,65.3,61.0,30.32,NE,41,0.0,0.0,86,0.00,,---,0.00,VWS V13.00,2013-09-28 21:46:00,
2013-09-28 17:51:00,65.2,60.9,30.32,NE,41,0.0,0.0,86,0.00,,---,0.00,VWS V13.00,2013-09-28 21:51:00,
2013-09-28 17:56:00,65.0,60.7,30.32,NE,41,0.0,0.0,86,0.00,,---,0.00,VWS V13.00,2013-09-28 21:56:00,
2013-09-28 18:01:00,64.9,60.6,30.32,NE,41,0.0,0.0,86,0.00,,---,0.00,VWS V13.00,2013-09-28 22:01:00,
2013-09-28 18:06:00,64.8,60.5,30.32,NE,41,0.0,0.0,86,0.00,,---,0.00,VWS V13.00,2013-09-28 22:06:00,
2013-09-28 18:11:00,64.8,60.2,30.32,NE,41,0.0,0.0,85,0.00,,---,0.00,VWS V13.00,2013-09-28 22:11:00,
2013-09-28 18:16:00,64.9,60.3,30.32,NE,41,0.0,0.0,85,0.00,,---,0.00,VWS V13.00,2013-09-28 22:16:00,
2013-09-28 18:21:00,64.8,59.9,30.32,NE,41,0.0,0.0,84,0.00,,---,0.00,VWS V13.00,2013-09-28 22:21:00,
2013-09-28 18:26:00,64.6,60.3,30.32,NE,41,0.0,0.0,86,0.00,,---,0.00,VWS V13.00,2013-09-28 22:26:00,
2013-09-28 18:31:00,64.3,60.0,30.32,NE,41,0.0,0.0,86,0.00,,---,0.00,VWS V13.00,2013-09-28 22:31:00,
2013-09-28 18:36:00,64.2,59.9,30.32,NE,41,0.0,0.0,86,0.00,,---,0.00,VWS V13.00,2013-09-28 22:36:00,
2013-09-28 18:41:00,64.2,59.9,30.31,NE,41,0.0,0.0,86,0.00,,---,0.00,VWS V13.00,2013-09-28 22:41:00,
2013-09-28 18:46:00,64.3,60.3,30.31,NE,41,0.0,0.0,87,0.00,,---,0.00,VWS V13.00,2013-09-28 22:46:00,
2013-09-28 18:51:00,64.0,60.1,30.31,NE,41,0.0,0.0,87,0.00,,---,0.00,VWS V13.00,2013-09-28 22:51:00,
2013-09-28 18:57:00,64.0,60.4,30.31,NE,41,0.0,0.0,88,0.00,,---,0.00,VWS V13.00,2013-09-28 22:57:00,
2013-09-28 19:02:00,63.9,60.3,30.31,NE,41,0.0,0.0,88,0.00,,---,0.00,VWS V13.00,2013-09-28 23:02:00,
2013-09-28 19:07:00,63.7,60.1,30.31,NE,41,0.0,0.0,88,0.00,,---,0.00,VWS V13.00,2013-09-28 23:07:00,
2013-09-28 19:12:00,63.6,60.3,30.31,NE,41,0.0,0.0,89,0.00,,---,0.00,VWS V13.00,2013-09-28 23:12:00,
2013-09-28 19:17:00,63.2,59.9,30.31,NE,41,0.0,0.0,89,0.00,,---,0.00,VWS V13.00,2013-09-28 23:17:00,
2013-09-28 19:22:00,63.1,59.8,30.31,NE,41,0.0,0.0,89,0.00,,---,0.00,VWS V13.00,2013-09-28 23:22:00,
2013-09-28 19:27:00,63.2,59.6,30.31,NE,41,0.0,0.0,88,0.00,,---,0.00,VWS V13.00,2013-09-28 23:27:00,
2013-09-28 19:32:00,63.2,59.6,30.31,NE,41,0.0,0.0,88,0.00,,---,0.00,VWS V13.00,2013-09-28 23:32:00,
2013-09-28 19:37:00,62.1,60.4,30.31,ESE,107,0.0,0.0,94,0.00,,---,0.00,VWS V13.00,2013-09-28 23:37:00,
2013-09-28 19:42:00,61.3,60.2,30.31,ESE,107,0.0,0.0,96,0.00,,---,0.00,VWS V13.00,2013-09-28 23:42:00,
2013-09-28 19:47:00,61.2,60.3,30.31,ESE,107,0.0,0.0,97,0.00,,---,0.00,VWS V13.00,2013-09-28 23:47:00,
2013-09-28 19:52:00,61.1,60.2,30.31,ESE,107,0.0,0.0,97,0.00,,---,0.00,VWS V13.00,2013-09-28 23:52:00,
2013-09-28 19:57:00,61.0,60.2,30.31,ESE,107,0.0,0.0,97,0.00,,---,0.00,VWS V13.00,2013-09-28 23:57:00,
2013-09-28 20:02:00,60.9,60.3,30.31,ESE,107,0.0,0.0,98,0.00,,---,0.00,VWS V13.00,2013-09-29 00:02:00,
2013-09-28 20:08:00,60.9,60.0,30.31,ESE,107,0.0,0.0,97,0.00,,---,0.00,VWS V13.00,2013-09-29 00:08:00,
2013-09-28 20:13:00,60.8,60.0,30.31,ESE,107,0.0,0.0,97,0.00,,---,0.00,VWS V13.00,2013-09-29 00:13:00,
2013-09-28 20:18:00,60.4,59.8,30.31,ESE,107,0.0,0.0,98,0.00,,---,0.00,VWS V13.00,2013-09-29 00:18:00,
2013-09-28 20:24:00,60.1,59.8,30.31,ESE,107,0.0,0.0,99,0.00,,---,0.00,VWS V13.00,2013-09-29 00:24:00,
2013-09-28 20:29:00,59.8,59.8,30.31,ESE,107,0.0,0.0,100,0.00,,---,0.00,VWS V13.00,2013-09-29 00:29:00,
2013-09-28 20:34:00,59.9,59.9,30.31,ESE,107,0.0,0.0,100,0.00,,---,0.00,VWS V13.00,2013-09-29 00:34:00,
2013-09-28 20:39:00,60.2,59.9,30.31,ESE,107,0.0,0.0,99,0.00,,---,0.00,VWS V13.00,2013-09-29 00:39:00,
2013-09-28 20:44:00,60.5,59.9,30.31,ESE,107,0.0,0.0,98,0.00,,---,0.00,VWS V13.00,2013-09-29 00:44:00,
2013-09-28 20:49:00,60.6,59.8,30.31,ESE,107,0.0,0.0,97,0.00,,---,0.00,VWS V13.00,2013-09-29 00:49:00,
2013-09-28 20:54:00,60.7,59.6,30.31,ESE,107,0.0,0.0,96,0.00,,---,0.00,VWS V13.00,2013-09-29 00:54:00,
2013-09-28 20:59:00,60.6,59.2,30.31,ESE,107,0.0,0.0,95,0.00,,---,0.00,VWS V13.00,2013-09-29 00:59:00,
2013-09-28 21:04:00,60.3,59.2,30.31,ESE,107,0.0,0.0,96,0.00,,---,0.00,VWS V13.00,2013-09-29 01:04:00,
2013-09-28 21:09:00,60.2,59.1,30.31,ESE,107,0.0,0.0,96,0.00,,---,0.00,VWS V13.00,2013-09-29 01:09:00,
2013-09-28 21:14:00,60.1,59.0,30.31,ESE,107,0.0,0.0,96,0.00,,---,0.00,VWS V13.00,2013-09-29 01:14:00,
2013-09-28 21:19:00,59.8,59.0,30.31,ESE,107,0.0,0.0,97,0.00,,---,0.00,VWS V13.00,2013-09-29 01:19:00,
2013-09-28 21:24:00,59.8,59.2,30.31,ESE,107,0.0,0.0,98,0.00,,---,0.00,VWS V13.00,2013-09-29 01:24:00,
2013-09-28 21:29:00,59.4,58.8,30.31,ESE,107,0.0,0.0,98,0.00,,---,0.00,VWS V13.00,2013-09-29 01:29:00,
2013-09-28 21:34:00,59.2,58.6,30.31,ESE,107,0.0,0.0,98,0.00,,---,0.00,VWS V13.00,2013-09-29 01:34:00,
2013-09-28 21:39:00,59.2,58.9,30.31,ESE,107,0.0,0.0,99,0.00,,---,0.00,VWS V13.00,2013-09-29 01:39:00,
2013-09-28 21:44:00,59.0,59.0,30.31,ESE,107,0.0,0.0,100,0.00,,---,0.00,VWS V13.00,2013-09-29 01:44:00,
2013-09-28 21:49:00,58.9,58.9,30.31,ESE,107,0.0,0.0,100,0.00,,---,0.00,VWS V13.00,2013-09-29 01:49:00,
2013-09-28 21:54:00,58.9,58.9,30.31,ESE,107,0.0,0.0,100,0.00,,---,0.00,VWS V13.00,2013-09-29 01:54:00,
2013-09-28 21:59:00,58.9,58.9,30.31,ESE,107,0.0,0.0,100,0.00,,---,0.00,VWS V13.00,2013-09-29 01:59:00,
2013-09-28 22:04:00,58.7,58.7,30.31,ESE,107,0.0,0.0,100,0.00,,---,0.00,VWS V13.00,2013-09-29 02:04:00,
2013-09-28 22:09:00,58.7,58.7,30.31,ESE,107,0.0,0.0,100,0.00,,---,0.00,VWS V13.00,2013-09-29 02:09:00,
2013-09-28 22:14:00,58.5,58.5,30.31,ESE,107,0.0,0.0,100,0.00,,---,0.00,VWS V13.00,2013-09-29 02:14:00,
2013-09-28 22:19:00,58.5,58.5,30.31,ESE,107,0.0,0.0,100,0.00,,---,0.00,VWS V13.00,2013-09-29 02:19:00,
2013-09-28 22:24:00,58.5,58.5,30.31,ESE,107,0.0,0.0,100,0.00,,---,0.00,VWS V13.00,2013-09-29 02:24:00,
2013-09-28 22:29:00,58.6,58.6,30.31,ESE,107,0.0,0.0,100,0.00,,---,0.00,VWS V13.00,2013-09-29 02:29:00,
2013-09-28 22:34:00,58.5,58.5,30.30,ESE,107,0.0,0.0,100,0.00,,---,0.00,VWS V13.00,2013-09-29 02:34:00,
2013-09-28 22:39:00,58.3,58.3,30.30,ESE,107,0.0,0.0,100,0.00,,---,0.00,VWS V13.00,2013-09-29 02:39:00,
2013-09-28 22:44:00,57.8,57.8,30.30,ESE,107,0.0,0.0,100,0.00,,---,0.00,VWS V13.00,2013-09-29 02:44:00,
2013-09-28 22:49:00,57.8,57.8,30.30,ESE,107,0.0,0.0,100,0.00,,---,0.00,VWS V13.00,2013-09-29 02:49:00,
2013-09-28 22:54:00,58.1,58.1,30.30,ESE,107,0.0,0.0,100,0.00,,---,0.00,VWS V13.00,2013-09-29 02:54:00,
2013-09-28 22:59:00,58.2,58.2,30.30,ESE,107,0.0,0.0,100,0.00,,---,0.00,VWS V13.00,2013-09-29 02:59:00,
2013-09-28 23:04:00,58.2,58.2,30.30,ESE,107,0.0,0.0,100,0.00,,---,0.00,VWS V13.00,2013-09-29 03:04:00,
2013-09-28 23:09:00,57.8,57.8,30.29,ESE,107,0.0,0.0,100,0.00,,---,0.00,VWS V13.00,2013-09-29 03:09:00,
2013-09-28 23:14:00,58.1,58.1,30.29,ESE,107,0.0,0.0,100,0.00,,---,0.00,VWS V13.00,2013-09-29 03:14:00,
2013-09-28 23:19:00,58.2,58.2,30.29,ESE,107,0.0,0.0,100,0.00,,---,0.00,VWS V13.00,2013-09-29 03:19:00,
2013-09-28 23:24:00,58.1,58.1,30.29,ESE,107,0.0,0.0,100,0.00,,---,0.00,VWS V13.00,2013-09-29 03:24:00,
2013-09-28 23:29:00,58.1,58.1,30.29,ESE,107,0.0,0.0,100,0.00,,---,0.00,VWS V13.00,2013-09-29 03:29:00,
2013-09-28 23:34:00,58.0,58.0,30.29,ESE,107,0.0,0.0,100,0.00,,---,0.00,VWS V13.00,2013-09-29 03:34:00,
2013-09-28 23:39:00,57.8,57.8,30.29,ESE,107,0.0,0.0,100,0.00,,---,0.00,VWS V13.00,2013-09-29 03:39:00,
2013-09-28 23:44:00,57.6,57.6,30.29,ESE,107,0.0,0.0,100,0.00,,---,0.00,VWS V13.00,2013-09-29 03:44:00,
2013-09-28 23:50:00,57.3,57.3,30.28,ESE,107,0.0,0.0,100,0.00,,---,0.00,VWS V13.00,2013-09-29 03:50:00,
2013-09-28 23:54:00,57.3,57.3,30.28,ESE,107,0.0,0.0,100,0.00,,---,0.00,VWS V13.00,2013-09-29 03:54:00,
2013-09-28 23:59:00,57.5,57.5,30.28,ESE,107,0.0,0.0,100,0.00,,---,0.00,VWS V13.00,2013-09-29 03:59:00,